Time;durP1;ratioP1;P1;durP2;ratioP2;P2;SDS_P1;SDS_P2;PMS_P1;PMS_P2;Temp;Humidity;BMP_temperature;BMP_pressure;BME280_temperature;BME280_humidity;BME280_pressure;Samples;Min_cycle;Max_cycle;Signal;HPM_P1;HPM_P2
2023/05/15 00:01:53;;;;;;;8.80;8.10;;;15.30;81.40;;;;;;5034048;28;20438;-69
2023/05/15 00:04:20;;;;;;;9.10;8.20;;;15.30;81.40;;;;;;5044035;28;20436;-71
2023/05/15 00:06:47;;;;;;;8.80;8.00;;;15.20;82.60;;;;;;5047645;28;20422;-69
2023/05/15 00:09:15;;;;;;;9.40;8.60;;;15.20;83.40;;;;;;5037532;28;20911;-69
2023/05/15 00:11:42;;;;;;;9.40;8.60;;;15.10;84.10;;;;;;5043615;28;20430;-71
2023/05/15 00:14:08;;;;;;;9.30;8.50;;;15.10;84.80;;;;;;5054996;28;20434;-71
2023/05/15 00:16:35;;;;;;;10.67;9.67;;;15.00;85.50;;;;;;5031445;28;20520;-69
2023/05/15 00:19:02;;;;;;;10.30;9.30;;;15.00;86.00;;;;;;5030695;28;20463;-71
2023/05/15 00:21:29;;;;;;;10.77;9.88;;;15.00;86.70;;;;;;5042967;28;20444;-70
2023/05/15 00:23:57;;;;;;;10.07;9.10;;;14.90;87.30;;;;;;5046110;28;20457;-69
2023/05/15 00:26:25;;;;;;;11.50;10.50;;;14.90;87.90;;;;;;5049574;28;20847;-70
2023/05/15 00:28:52;;;;;;;11.32;10.43;;;14.80;88.30;;;;;;5048695;28;20937;-69
2023/05/15 00:31:18;;;;;;;11.82;10.82;;;14.80;89.80;;;;;;5032604;28;20444;-69
2023/05/15 00:33:46;;;;;;;12.15;11.05;;;14.80;90.00;;;;;;5042891;28;20752;-69
2023/05/15 00:36:13;;;;;;;12.70;11.68;;;14.70;90.40;;;;;;5032282;28;20431;-69
2023/05/15 00:38:40;;;;;;;12.80;11.77;;;14.50;91.10;;;;;;5043053;28;20444;-69
2023/05/15 00:41:07;;;;;;;13.25;12.05;;;14.50;92.00;;;;;;5043615;28;20439;-69
2023/05/15 00:43:38;;;;;;;14.10;12.90;;;14.40;92.70;;;;;;5030292;28;20475;-69
2023/05/15 00:46:06;;;;;;;14.52;13.32;;;14.30;93.50;;;;;;5034198;28;20565;-71
2023/05/15 00:48:33;;;;;;;15.32;13.82;;;14.20;94.50;;;;;;5043924;28;20447;-69
2023/05/15 00:51:00;;;;;;;16.40;15.00;;;14.20;95.20;;;;;;5056653;28;20417;-69
2023/05/15 00:53:27;;;;;;;15.90;14.43;;;14.10;95.90;;;;;;5041850;28;20465;-69
2023/05/15 00:55:56;;;;;;;16.27;14.88;;;14.10;96.40;;;;;;5043893;28;20429;-73
2023/05/15 00:58:24;;;;;;;17.55;15.93;;;14.00;96.90;;;;;;5040212;28;20433;-70
2023/05/15 01:00:53;;;;;;;17.27;15.77;;;14.00;97.50;;;;;;5040893;28;20522;-69
2023/05/15 01:03:20;;;;;;;17.45;16.02;;;14.00;98.20;;;;;;5045580;28;20427;-71
2023/05/15 01:05:47;;;;;;;19.95;18.25;;;14.00;98.70;;;;;;5054588;28;20413;-69
2023/05/15 01:08:19;;;;;;;19.75;17.90;;;13.90;99.40;;;;;;5038951;28;20477;-69
2023/05/15 01:10:48;;;;;;;18.73;17.17;;;13.90;99.90;;;;;;5047418;28;20840;-70
2023/05/15 01:13:16;;;;;;;20.10;18.10;;;13.90;99.90;;;;;;5046042;28;20453;-69
2023/05/15 01:15:43;;;;;;;19.60;17.65;;;13.90;99.90;;;;;;5035580;28;20750;-69
2023/05/15 01:18:11;;;;;;;21.67;19.55;;;13.90;99.90;;;;;;5044451;28;20430;-69
2023/05/15 01:21:06;;;;;;;20.10;18.20;;;13.90;99.90;;;;;;5049647;28;20417;-69
2023/05/15 01:23:45;;;;;;;21.40;19.30;;;13.80;99.90;;;;;;5041084;28;20523;-69
2023/05/15 01:26:52;;;;;;;20.63;18.63;;;13.80;99.90;;;;;;5062037;28;20550;-69
2023/05/15 01:29:24;;;;;;;22.80;20.70;;;13.80;99.90;;;;;;5045697;28;20440;-69
2023/05/15 01:31:57;;;;;;;20.80;18.90;;;13.70;99.90;;;;;;5039545;28;20440;-70
2023/05/15 01:34:31;;;;;;;22.00;19.90;;;13.70;99.90;;;;;;5044705;28;20420;-70
2023/05/15 01:37:03;;;;;;;21.05;19.05;;;13.70;99.90;;;;;;5046546;28;20755;-69
2023/05/15 01:39:33;;;;;;;22.52;20.33;;;13.70;99.90;;;;;;5048078;28;20443;-70
2023/05/15 01:42:03;;;;;;;22.77;20.52;;;13.70;99.90;;;;;;5046338;28;20418;-70
2023/05/15 01:44:35;;;;;;;22.67;20.48;;;13.70;99.90;;;;;;5046106;28;20448;-70
2023/05/15 01:47:08;;;;;;;22.83;20.73;;;13.70;99.90;;;;;;5037386;28;20911;-70
2023/05/15 01:49:36;;;;;;;24.10;21.85;;;13.60;99.90;;;;;;5043750;28;20448;-69
2023/05/15 01:52:08;;;;;;;23.90;21.58;;;13.70;99.90;;;;;;5046079;28;20421;-70
2023/05/15 01:54:36;;;;;;;24.25;21.85;;;13.60;99.90;;;;;;5044924;28;20664;-70
2023/05/15 01:57:04;;;;;;;26.67;23.77;;;13.70;99.90;;;;;;5041326;28;20670;-70
2023/05/15 01:59:33;;;;;;;28.48;24.35;;;13.60;99.90;;;;;;5047457;28;20432;-70
2023/05/15 02:02:03;;;;;;;34.30;26.67;;;13.70;99.90;;;;;;5038344;28;20444;-70
2023/05/15 02:04:30;;;;;;;33.20;28.50;;;13.70;99.90;;;;;;5052705;28;20417;-70
2023/05/15 02:06:57;;;;;;;38.83;28.77;;;13.70;99.90;;;;;;5044025;28;20517;-70
2023/05/15 02:09:25;;;;;;;35.15;29.38;;;13.80;99.90;;;;;;5045198;28;20421;-70
2023/05/15 02:11:53;;;;;;;35.67;29.17;;;13.90;99.90;;;;;;5051845;28;20418;-69
2023/05/15 02:14:21;;;;;;;37.97;28.73;;;13.90;99.90;;;;;;5039953;28;20440;-70
2023/05/15 02:16:49;;;;;;;38.05;29.77;;;13.90;99.90;;;;;;5032297;28;20431;-69
2023/05/15 02:19:15;;;;;;;39.13;29.02;;;13.90;99.90;;;;;;5045166;28;20421;-69
2023/05/15 02:21:42;;;;;;;37.30;30.40;;;14.00;99.90;;;;;;5043667;28;20432;-70
2023/05/15 02:24:09;;;;;;;38.72;29.50;;;14.00;99.90;;;;;;5044769;28;20429;-70
2023/05/15 02:26:45;;;;;;;37.97;29.00;;;14.00;99.90;;;;;;5046007;28;20439;-69
2023/05/15 02:29:19;;;;;;;38.35;30.20;;;14.00;99.90;;;;;;5038958;28;20459;-70
2023/05/15 02:31:59;;;;;;;33.92;28.42;;;14.10;99.90;;;;;;5033160;28;20472;-69
2023/05/15 02:34:32;;;;;;;36.90;29.88;;;14.10;99.90;;;;;;5048188;28;20503;-70
2023/05/15 02:37:01;;;;;;;34.67;28.48;;;14.10;99.90;;;;;;5064479;28;20770;-69
2023/05/15 02:39:28;;;;;;;34.63;28.92;;;14.10;99.90;;;;;;5064978;28;20750;-69
2023/05/15 02:41:56;;;;;;;33.90;29.25;;;14.10;99.90;;;;;;5047126;28;20448;-69
2023/05/15 02:44:24;;;;;;;31.42;28.02;;;14.10;99.90;;;;;;5037377;28;20422;-70
2023/05/15 02:46:54;;;;;;;31.33;27.27;;;14.10;99.90;;;;;;5036425;28;20437;-70
2023/05/15 02:49:22;;;;;;;30.40;27.30;;;14.10;99.90;;;;;;5043022;28;20422;-69
2023/05/15 02:51:48;;;;;;;31.30;28.05;;;14.10;99.90;;;;;;5048280;28;20444;-69
2023/05/15 02:54:15;;;;;;;31.52;28.33;;;14.10;99.90;;;;;;5052719;28;20439;-70
2023/05/15 02:56:42;;;;;;;31.30;27.80;;;14.10;99.90;;;;;;5053887;28;20433;-70
2023/05/15 02:59:08;;;;;;;31.75;28.45;;;14.00;99.90;;;;;;5052067;28;20423;-70
2023/05/15 03:01:35;;;;;;;32.05;28.70;;;14.00;99.90;;;;;;5041936;28;20440;-70
2023/05/15 03:04:03;;;;;;;33.22;29.80;;;14.10;99.90;;;;;;5043890;28;20441;-70
2023/05/15 03:06:30;;;;;;;31.63;28.33;;;14.10;99.90;;;;;;5044402;28;20473;-70
2023/05/15 03:08:57;;;;;;;31.20;27.83;;;14.10;99.90;;;;;;5042784;28;20520;-69
2023/05/15 03:11:24;;;;;;;34.63;31.02;;;14.10;99.90;;;;;;5040931;28;20437;-70
2023/05/15 03:13:50;;;;;;;34.30;30.80;;;14.10;99.90;;;;;;5044671;28;20516;-70
2023/05/15 03:16:17;;;;;;;32.85;29.40;;;14.10;99.90;;;;;;5030211;28;20435;-70
2023/05/15 03:18:44;;;;;;;32.83;29.52;;;14.10;99.90;;;;;;5042966;28;20448;-69
2023/05/15 03:21:13;;;;;;;34.50;31.00;;;14.10;99.90;;;;;;5046753;28;20448;-69
2023/05/15 03:23:39;;;;;;;33.00;29.50;;;14.10;99.90;;;;;;5045562;28;20451;-69
2023/05/15 03:26:06;;;;;;;33.80;30.33;;;14.00;99.90;;;;;;5050469;28;20835;-70
2023/05/15 03:28:33;;;;;;;33.40;29.90;;;13.90;99.90;;;;;;5044376;28;20425;-69
2023/05/15 03:31:03;;;;;;;35.17;31.52;;;13.90;99.90;;;;;;5038069;28;20451;-70
2023/05/15 03:33:30;;;;;;;35.45;31.88;;;14.00;99.90;;;;;;5039181;28;20484;-69
2023/05/15 03:35:57;;;;;;;34.40;30.70;;;14.00;99.90;;;;;;5057276;28;20761;-69
2023/05/15 03:38:25;;;;;;;36.20;32.38;;;13.90;99.90;;;;;;5044597;28;20524;-70
2023/05/15 03:40:52;;;;;;;34.97;31.38;;;13.90;99.90;;;;;;5041905;28;20433;-70
2023/05/15 03:43:18;;;;;;;36.10;32.40;;;13.80;99.90;;;;;;5043839;28;20424;-70
2023/05/15 03:45:45;;;;;;;37.15;33.15;;;13.80;99.90;;;;;;5038330;28;20441;-70
2023/05/15 03:48:12;;;;;;;37.53;33.53;;;13.80;99.90;;;;;;5035277;28;20958;-69
2023/05/15 03:50:39;;;;;;;36.85;32.75;;;13.80;99.90;;;;;;5040602;28;20434;-69
2023/05/15 03:53:05;;;;;;;37.45;33.55;;;13.70;99.90;;;;;;5042858;28;20432;-70
2023/05/15 03:55:33;;;;;;;38.80;33.85;;;13.70;99.90;;;;;;5053016;28;20411;-69
2023/05/15 03:58:00;;;;;;;37.08;33.28;;;13.70;99.90;;;;;;5024499;28;20423;-70
2023/05/15 04:00:27;;;;;;;37.55;33.75;;;13.70;99.90;;;;;;5054066;28;20434;-69
2023/05/15 04:02:54;;;;;;;40.30;35.90;;;13.70;99.90;;;;;;5040683;28;20784;-70
2023/05/15 04:05:21;;;;;;;38.65;34.65;;;13.70;99.90;;;;;;5048217;28;20852;-70
2023/05/15 04:07:48;;;;;;;38.50;34.60;;;13.70;99.90;;;;;;5054165;28;20506;-70
2023/05/15 04:10:14;;;;;;;36.80;33.03;;;13.80;99.90;;;;;;5040722;28;20421;-70
2023/05/15 04:12:42;;;;;;;36.92;32.97;;;13.80;99.90;;;;;;5031487;28;20421;-70
2023/05/15 04:15:16;;;;;;;37.53;33.47;;;13.80;99.90;;;;;;5036499;28;20515;-69
2023/05/15 04:17:43;;;;;;;41.40;35.63;;;13.80;99.90;;;;;;5035894;28;20564;-70
2023/05/15 04:20:13;;;;;;;38.67;34.57;;;13.80;99.90;;;;;;5049729;28;20504;-70
2023/05/15 04:22:39;;;;;;;38.85;34.80;;;13.80;99.90;;;;;;5042390;28;20447;-70
2023/05/15 04:25:08;;;;;;;39.45;35.15;;;13.80;99.90;;;;;;5043585;28;20508;-70
2023/05/15 04:27:35;;;;;;;39.20;34.90;;;13.80;99.90;;;;;;5044115;28;20417;-70
2023/05/15 04:30:03;;;;;;;40.35;35.00;;;13.80;99.90;;;;;;5031977;28;20431;-70
2023/05/15 04:32:30;;;;;;;41.60;35.90;;;13.70;99.90;;;;;;5036992;28;20806;-69
2023/05/15 04:34:57;;;;;;;41.38;36.88;;;13.70;99.90;;;;;;5048117;28;20416;-69
2023/05/15 04:37:23;;;;;;;42.38;36.03;;;13.70;99.90;;;;;;5049301;28;20439;-70
2023/05/15 04:39:50;;;;;;;38.55;34.50;;;13.60;99.90;;;;;;5047048;28;20521;-70
2023/05/15 04:42:17;;;;;;;40.40;36.20;;;13.60;99.90;;;;;;5046364;28;20424;-70
2023/05/15 04:44:44;;;;;;;39.85;35.50;;;13.60;99.90;;;;;;5043131;28;20439;-69
2023/05/15 04:47:12;;;;;;;41.15;36.75;;;13.60;99.90;;;;;;5046124;28;20510;-70
2023/05/15 04:49:39;;;;;;;40.90;36.63;;;13.60;99.90;;;;;;5045445;28;20421;-70
2023/05/15 04:52:06;;;;;;;42.80;36.97;;;13.50;99.90;;;;;;5043449;28;20514;-70
2023/05/15 04:54:33;;;;;;;39.88;35.47;;;13.50;99.90;;;;;;5046220;28;20425;-70
2023/05/15 04:57:00;;;;;;;42.58;36.55;;;13.40;99.90;;;;;;5049648;28;20415;-70
2023/05/15 04:59:27;;;;;;;40.63;36.30;;;13.40;99.90;;;;;;5064818;28;20502;-70
2023/05/15 05:01:54;;;;;;;41.35;36.38;;;13.50;99.90;;;;;;5030596;28;20453;-69
2023/05/15 05:04:22;;;;;;;42.25;37.78;;;13.50;99.90;;;;;;5037628;28;20525;-69
2023/05/15 05:06:49;;;;;;;42.97;38.40;;;13.40;99.90;;;;;;5040829;28;20437;-69
2023/05/15 05:09:16;;;;;;;44.17;39.27;;;13.40;99.90;;;;;;5037857;28;20531;-68
2023/05/15 05:11:43;;;;;;;43.75;38.95;;;13.40;99.90;;;;;;5047927;28;20417;-69
2023/05/15 05:14:09;;;;;;;44.00;39.30;;;13.40;99.90;;;;;;5038839;28;20448;-69
2023/05/15 05:16:36;;;;;;;47.47;40.50;;;13.40;99.90;;;;;;5034182;28;20895;-69
2023/05/15 05:19:03;;;;;;;46.63;40.60;;;13.30;99.90;;;;;;5044904;28;20424;-69
2023/05/15 05:21:32;;;;;;;47.15;42.10;;;13.40;99.90;;;;;;5045355;28;20417;-69
2023/05/15 05:23:59;;;;;;;47.63;40.47;;;13.30;99.90;;;;;;5046013;28;20418;-69
2023/05/15 05:26:26;;;;;;;48.22;43.08;;;13.30;99.90;;;;;;5034547;28;20715;-69
2023/05/15 05:28:53;;;;;;;51.65;44.25;;;13.40;99.90;;;;;;5044218;28;20413;-69
2023/05/15 05:31:21;;;;;;;50.23;44.73;;;13.30;99.90;;;;;;5039236;28;20505;-69
2023/05/15 05:33:48;;;;;;;52.07;45.60;;;13.30;99.90;;;;;;5044378;28;20444;-69
2023/05/15 05:36:15;;;;;;;50.20;44.42;;;13.20;99.90;;;;;;5051563;28;20488;-69
2023/05/15 05:38:43;;;;;;;48.70;42.50;;;13.30;99.90;;;;;;5030117;28;20435;-69
2023/05/15 05:41:10;;;;;;;45.20;40.30;;;13.20;99.90;;;;;;5044121;28;20484;-69
2023/05/15 05:43:36;;;;;;;43.90;39.10;;;13.30;99.90;;;;;;5036520;28;20458;-69
2023/05/15 05:46:03;;;;;;;43.57;38.87;;;13.30;99.90;;;;;;5043009;28;20521;-69
2023/05/15 05:48:30;;;;;;;38.53;33.87;;;13.30;99.90;;;;;;5042924;28;20480;-69
2023/05/15 05:50:57;;;;;;;35.13;31.25;;;13.30;99.90;;;;;;5047209;28;20899;-69
2023/05/15 05:53:24;;;;;;;34.00;30.30;;;13.30;99.70;;;;;;5034652;28;20533;-69
2023/05/15 05:55:52;;;;;;;33.08;29.67;;;13.30;99.70;;;;;;5045929;28;20414;-69
2023/05/15 05:58:19;;;;;;;32.67;29.50;;;13.40;99.90;;;;;;5037658;28;20433;-69
2023/05/15 06:00:47;;;;;;;30.23;27.23;;;13.50;99.90;;;;;;5035646;28;20450;-69
2023/05/15 06:03:14;;;;;;;28.57;25.87;;;13.60;99.90;;;;;;5046430;28;20570;-69
2023/05/15 06:05:41;;;;;;;30.30;27.10;;;13.60;98.80;;;;;;5046934;28;20430;-69
2023/05/15 06:08:08;;;;;;;29.40;26.58;;;13.70;98.40;;;;;;5043354;28;20481;-69
2023/05/15 06:10:35;;;;;;;27.65;25.02;;;13.70;97.80;;;;;;5044052;28;20780;-68
2023/05/15 06:13:03;;;;;;;28.50;25.70;;;13.70;97.50;;;;;;5036160;28;20498;-69
2023/05/15 06:15:30;;;;;;;30.17;27.38;;;13.80;97.40;;;;;;5024204;28;20529;-69
2023/05/15 06:17:56;;;;;;;29.98;27.27;;;13.80;97.10;;;;;;5033531;28;20417;-70
2023/05/15 06:20:23;;;;;;;30.70;26.80;;;13.70;97.50;;;;;;5043921;28;20428;-71
2023/05/15 06:22:50;;;;;;;29.92;26.85;;;13.80;97.80;;;;;;5038883;28;20438;-71
2023/05/15 06:25:17;;;;;;;29.45;26.58;;;13.90;97.80;;;;;;5037019;28;20433;-71
2023/05/15 06:27:44;;;;;;;29.83;26.92;;;14.00;96.90;;;;;;5041372;28;20507;-70
2023/05/15 06:30:13;;;;;;;29.50;26.70;;;14.00;96.70;;;;;;5036933;28;20875;-70
2023/05/15 06:32:40;;;;;;;32.30;29.30;;;13.90;96.80;;;;;;5041356;28;20417;-71
2023/05/15 06:35:08;;;;;;;33.45;30.10;;;13.90;96.60;;;;;;5044319;28;20417;-70
2023/05/15 06:37:35;;;;;;;34.28;30.90;;;13.70;96.80;;;;;;5041797;28;20860;-71
2023/05/15 06:40:02;;;;;;;36.20;32.70;;;13.60;97.00;;;;;;5037324;28;20436;-70
2023/05/15 06:42:29;;;;;;;33.47;30.17;;;13.50;97.20;;;;;;5049225;28;20795;-71
2023/05/15 06:44:56;;;;;;;35.65;31.95;;;13.40;97.60;;;;;;5036383;28;20454;-70
2023/05/15 06:47:24;;;;;;;36.00;32.50;;;13.30;97.50;;;;;;5037412;28;20456;-71
2023/05/15 06:49:51;;;;;;;36.65;32.95;;;13.30;97.80;;;;;;5040129;28;20490;-72
2023/05/15 06:52:18;;;;;;;36.08;32.50;;;13.20;98.20;;;;;;5034340;28;20895;-71
2023/05/15 06:54:44;;;;;;;37.20;33.50;;;13.20;98.00;;;;;;5038436;28;20413;-72
2023/05/15 06:57:11;;;;;;;36.73;33.13;;;13.30;98.30;;;;;;5046235;28;20731;-70
2023/05/15 06:59:38;;;;;;;37.23;33.63;;;13.30;97.70;;;;;;5028341;28;20536;-72
2023/05/15 07:02:05;;;;;;;37.43;33.73;;;13.30;97.20;;;;;;5028813;28;20516;-72
2023/05/15 07:04:33;;;;;;;35.88;32.20;;;13.40;97.40;;;;;;5035609;28;20880;-72
2023/05/15 07:07:00;;;;;;;37.03;33.47;;;13.50;97.30;;;;;;5046073;28;20443;-72
2023/05/15 07:09:26;;;;;;;37.38;33.83;;;13.60;97.40;;;;;;5043910;28;20860;-71
2023/05/15 07:11:53;;;;;;;39.00;35.28;;;13.80;97.20;;;;;;5057688;28;20531;-71
2023/05/15 07:14:20;;;;;;;38.17;34.58;;;13.80;96.10;;;;;;5035053;28;20448;-71
2023/05/15 07:16:46;;;;;;;39.47;35.78;;;13.90;95.90;;;;;;5034969;28;20420;-71
2023/05/15 07:19:16;;;;;;;42.75;38.38;;;14.00;95.60;;;;;;5046136;28;20432;-71
2023/05/15 07:21:45;;;;;;;43.28;38.95;;;13.90;95.00;;;;;;5032272;28;20445;-71
2023/05/15 07:24:11;;;;;;;43.72;39.33;;;13.80;95.40;;;;;;5035452;28;20924;-71
2023/05/15 07:26:38;;;;;;;44.10;39.60;;;13.60;95.90;;;;;;5041806;28;20460;-71
2023/05/15 07:29:05;;;;;;;42.10;38.00;;;13.40;96.10;;;;;;5033904;28;20430;-71
2023/05/15 07:31:32;;;;;;;41.73;37.53;;;13.40;96.60;;;;;;5035421;28;20434;-71
2023/05/15 07:33:59;;;;;;;41.35;37.15;;;13.40;97.10;;;;;;5039941;28;20516;-70
2023/05/15 07:36:25;;;;;;;40.65;36.60;;;13.40;97.40;;;;;;5037436;28;20543;-70
2023/05/15 07:38:53;;;;;;;42.88;38.67;;;13.50;96.30;;;;;;5043171;28;20418;-71
2023/05/15 07:41:20;;;;;;;41.60;37.40;;;13.50;96.30;;;;;;5040678;28;20417;-70
2023/05/15 07:43:47;;;;;;;40.67;36.27;;;13.60;96.50;;;;;;5033400;28;20407;-70
2023/05/15 07:46:14;;;;;;;41.20;36.90;;;13.50;96.00;;;;;;5039842;28;20444;-70
2023/05/15 07:48:41;;;;;;;41.80;37.60;;;13.50;96.30;;;;;;5042474;28;20457;-69
2023/05/15 07:51:07;;;;;;;39.47;35.47;;;13.50;96.10;;;;;;5052637;28;20496;-70
2023/05/15 07:53:34;;;;;;;40.08;36.20;;;13.50;96.00;;;;;;5045115;28;20432;-70
2023/05/15 07:56:02;;;;;;;39.45;35.65;;;13.40;96.10;;;;;;5051931;28;20762;-71
2023/05/15 07:58:29;;;;;;;36.72;33.03;;;13.50;96.60;;;;;;5032533;28;20433;-69
2023/05/15 08:00:55;;;;;;;39.03;35.07;;;13.60;96.50;;;;;;5037558;28;20867;-69
2023/05/15 08:03:22;;;;;;;37.47;33.78;;;13.70;95.40;;;;;;5044456;28;20552;-69
2023/05/15 08:05:49;;;;;;;37.17;33.53;;;13.70;95.40;;;;;;5045291;28;20515;-70
2023/05/15 08:08:15;;;;;;;38.25;34.50;;;13.80;94.90;;;;;;5047308;28;20423;-69
2023/05/15 08:10:42;;;;;;;38.25;34.47;;;13.70;95.00;;;;;;5055203;28;20448;-70
2023/05/15 08:13:10;;;;;;;37.17;33.28;;;13.60;95.30;;;;;;5039783;28;20467;-69
2023/05/15 08:15:37;;;;;;;37.20;33.60;;;13.50;95.20;;;;;;5034095;28;20477;-67
2023/05/15 08:18:08;;;;;;;38.40;34.70;;;13.40;95.70;;;;;;5037736;28;20429;-68
2023/05/15 08:20:35;;;;;;;37.65;34.15;;;13.40;95.80;;;;;;5045797;28;20452;-67
2023/05/15 08:23:02;;;;;;;38.10;34.50;;;13.40;95.70;;;;;;5047523;28;20432;-68
2023/05/15 08:25:29;;;;;;;39.10;35.20;;;13.40;95.80;;;;;;5037513;28;20438;-67
2023/05/15 08:27:55;;;;;;;38.80;35.00;;;13.30;95.80;;;;;;5043148;28;20509;-67
2023/05/15 08:30:23;;;;;;;38.75;34.85;;;13.30;95.90;;;;;;5042958;28;20821;-67
2023/05/15 08:32:50;;;;;;;38.22;34.45;;;13.30;96.10;;;;;;5037732;28;20432;-67
2023/05/15 08:35:17;;;;;;;35.97;32.38;;;13.40;96.20;;;;;;5045670;28;20428;-67
2023/05/15 08:37:44;;;;;;;36.88;33.38;;;13.40;95.80;;;;;;5050220;28;20932;-67
2023/05/15 08:40:12;;;;;;;36.92;33.53;;;13.50;95.10;;;;;;5041968;28;20582;-68
2023/05/15 08:42:44;;;;;;;37.65;33.83;;;13.50;94.80;;;;;;5046487;28;20497;-67
2023/05/15 08:45:12;;;;;;;37.22;33.72;;;13.60;95.20;;;;;;5045481;28;20417;-67
2023/05/15 08:47:42;;;;;;;36.00;32.50;;;13.70;94.40;;;;;;5041273;28;20428;-67
2023/05/15 08:50:11;;;;;;;35.45;32.13;;;13.70;94.10;;;;;;5049534;28;20429;-67
2023/05/15 08:52:40;;;;;;;36.95;33.45;;;13.70;94.20;;;;;;5045091;28;20419;-68
2023/05/15 08:55:08;;;;;;;37.78;34.20;;;13.80;94.30;;;;;;5043980;28;20831;-67
2023/05/15 08:57:35;;;;;;;34.00;30.80;;;13.90;94.70;;;;;;5045867;28;20462;-67
2023/05/15 09:00:05;;;;;;;35.30;31.90;;;14.00;93.70;;;;;;5041733;28;20453;-67
2023/05/15 09:02:32;;;;;;;33.90;30.80;;;14.00;93.40;;;;;;5040963;28;20506;-67
2023/05/15 09:05:00;;;;;;;32.10;29.10;;;14.10;93.50;;;;;;5045197;28;20763;-67
2023/05/15 09:07:27;;;;;;;32.80;29.80;;;14.30;93.50;;;;;;5050708;28;20925;-67
2023/05/15 09:09:55;;;;;;;32.85;29.85;;;14.50;93.60;;;;;;5042362;28;20483;-67
2023/05/15 09:12:24;;;;;;;30.40;27.60;;;14.60;92.40;;;;;;5038699;28;20942;-67
2023/05/15 09:14:51;;;;;;;29.75;27.00;;;14.80;92.50;;;;;;5035515;28;20770;-67
2023/05/15 09:17:18;;;;;;;27.50;25.20;;;15.20;92.30;;;;;;5039583;28;20463;-67
2023/05/15 09:19:44;;;;;;;28.40;26.00;;;15.60;91.40;;;;;;5050063;28;20693;-67
2023/05/15 09:22:17;;;;;;;27.17;24.70;;;16.00;89.40;;;;;;5053753;28;20619;-67
2023/05/15 09:24:46;;;;;;;27.17;24.70;;;16.30;85.40;;;;;;5045944;28;20844;-67
2023/05/15 09:27:13;;;;;;;26.02;23.92;;;16.70;83.70;;;;;;5046303;28;20452;-67
2023/05/15 09:29:40;;;;;;;27.00;24.70;;;17.00;77.70;;;;;;5052476;28;20439;-68
2023/05/15 09:32:09;;;;;;;25.67;23.38;;;17.00;77.70;;;;;;5041283;28;20425;-67
2023/05/15 09:34:37;;;;;;;24.33;22.23;;;17.20;79.20;;;;;;5045027;28;20436;-69
2023/05/15 09:37:06;;;;;;;25.48;23.27;;;17.60;76.70;;;;;;5045046;28;20840;-67
2023/05/15 09:39:40;;;;;;;23.40;21.45;;;17.90;73.60;;;;;;5032226;28;20418;-67
2023/05/15 09:42:07;;;;;;;23.98;21.98;;;18.10;74.70;;;;;;5045294;28;20414;-68
2023/05/15 09:44:35;;;;;;;24.00;22.00;;;18.40;72.70;;;;;;5044265;28;20425;-67
2023/05/15 09:47:02;;;;;;;24.90;22.60;;;18.70;71.40;;;;;;5039460;28;20436;-68
2023/05/15 09:49:29;;;;;;;22.10;20.30;;;18.90;66.80;;;;;;5044747;28;20413;-68
2023/05/15 09:51:58;;;;;;;23.85;21.65;;;18.90;68.70;;;;;;5044216;28;20464;-69
2023/05/15 09:54:28;;;;;;;20.30;18.70;;;19.10;66.80;;;;;;5042869;28;20434;-70
2023/05/15 09:57:06;;;;;;;22.15;20.15;;;19.30;69.40;;;;;;5038454;28;20444;-71
2023/05/15 09:59:33;;;;;;;21.90;19.92;;;19.50;63.60;;;;;;5042148;28;20432;-71
2023/05/15 10:02:00;;;;;;;21.63;19.75;;;19.40;65.00;;;;;;5043491;28;20797;-71
2023/05/15 10:04:26;;;;;;;21.20;19.35;;;19.40;64.80;;;;;;5045194;28;20440;-71
2023/05/15 10:06:53;;;;;;;19.83;18.13;;;19.40;61.90;;;;;;5046966;28;20430;-72
2023/05/15 10:09:20;;;;;;;19.35;17.65;;;19.10;61.90;;;;;;5046513;28;20443;-70
2023/05/15 10:11:51;;;;;;;19.33;17.63;;;18.90;63.80;;;;;;5040699;28;20482;-72
2023/05/15 10:14:22;;;;;;;20.00;18.20;;;18.80;64.10;;;;;;5044146;28;20447;-71
2023/05/15 10:16:50;;;;;;;20.75;18.85;;;18.90;62.00;;;;;;5029047;28;20888;-70
2023/05/15 10:19:21;;;;;;;19.48;17.75;;;18.70;62.80;;;;;;5044304;28;20885;-72
2023/05/15 10:21:48;;;;;;;18.17;16.58;;;18.70;63.30;;;;;;5041090;28;20429;-70
2023/05/15 10:24:19;;;;;;;19.45;17.65;;;18.70;64.80;;;;;;5038569;28;20438;-70
2023/05/15 10:26:48;;;;;;;18.58;17.08;;;19.00;64.70;;;;;;5042184;28;20490;-71
2023/05/15 10:29:20;;;;;;;18.13;16.63;;;19.30;61.80;;;;;;5042579;28;20425;-70
2023/05/15 10:31:48;;;;;;;17.48;15.98;;;19.40;61.40;;;;;;5035003;28;20878;-70
2023/05/15 10:34:16;;;;;;;18.05;16.45;;;19.70;61.30;;;;;;5031509;28;20452;-70
2023/05/15 10:36:43;;;;;;;18.67;17.07;;;19.90;60.90;;;;;;5044146;28;20409;-70
2023/05/15 10:39:10;;;;;;;16.48;15.07;;;20.00;58.60;;;;;;5030793;28;20575;-70
2023/05/15 10:41:39;;;;;;;14.60;13.40;;;20.20;62.30;;;;;;5039412;28;20441;-70
2023/05/15 10:44:06;;;;;;;13.57;12.27;;;20.60;59.00;;;;;;5043751;28;20421;-70
2023/05/15 10:46:35;;;;;;;12.00;11.00;;;21.00;58.40;;;;;;5039765;28;20433;-70
2023/05/15 10:49:02;;;;;;;16.23;14.68;;;21.30;56.90;;;;;;5040157;28;20716;-70
2023/05/15 10:51:31;;;;;;;14.98;13.68;;;21.60;52.90;;;;;;5041805;28;20440;-72
2023/05/15 10:54:02;;;;;;;15.20;13.80;;;21.80;53.30;;;;;;5042331;28;20527;-71
2023/05/15 10:56:30;;;;;;;15.02;13.82;;;22.00;52.50;;;;;;5040418;28;20921;-70
2023/05/15 10:58:57;;;;;;;13.60;12.60;;;22.10;50.50;;;;;;5042531;28;20491;-73
2023/05/15 11:01:30;;;;;;;12.60;11.60;;;22.10;50.40;;;;;;5043126;28;20475;-70
2023/05/15 11:04:12;;;;;;;13.05;12.00;;;22.20;49.40;;;;;;5040460;28;20504;-70
2023/05/15 11:06:41;;;;;;;12.52;11.52;;;22.20;48.20;;;;;;5041294;28;20658;-72
2023/05/15 11:09:33;;;;;;;11.80;10.80;;;22.30;46.90;;;;;;5050752;28;20426;-73
2023/05/15 11:12:01;;;;;;;13.10;12.00;;;22.20;44.80;;;;;;5047610;28;20489;-72
2023/05/15 11:14:29;;;;;;;10.82;9.95;;;22.20;44.80;;;;;;5043917;28;20910;-68
2023/05/15 11:17:04;;;;;;;11.02;10.13;;;22.30;44.70;;;;;;5022271;28;20743;-69
2023/05/15 11:19:56;;;;;;;11.98;10.98;;;22.20;45.00;;;;;;5040568;28;20444;-69
2023/05/15 11:22:29;;;;;;;12.30;11.30;;;22.30;46.00;;;;;;5048305;28;20455;-71
2023/05/15 11:25:00;;;;;;;12.10;11.10;;;22.50;45.60;;;;;;5046612;23;20441;-68
2023/05/15 11:27:29;;;;;;;11.40;10.50;;;22.80;45.80;;;;;;5064551;28;20485;-67
2023/05/15 11:30:20;;;;;;;13.73;12.63;;;23.10;45.40;;;;;;5043078;28;20894;-68
2023/05/15 11:32:54;;;;;;;11.63;10.80;;;23.20;42.40;;;;;;5015468;28;20949;-66
2023/05/15 11:35:24;;;;;;;10.18;9.18;;;23.40;43.30;;;;;;5034941;28;20817;-67
2023/05/15 11:37:52;;;;;;;12.77;11.60;;;23.50;43.00;;;;;;5027515;28;20426;-66
2023/05/15 11:40:21;;;;;;;9.70;8.90;;;23.70;42.00;;;;;;5027465;28;20458;-65
2023/05/15 11:43:16;;;;;;;9.40;8.18;;;23.90;43.50;;;;;;5028145;28;20837;-68
2023/05/15 11:45:45;;;;;;;8.82;7.93;;;24.20;41.60;;;;;;5017254;28;20518;-68
2023/05/15 11:48:14;;;;;;;8.80;8.10;;;24.40;39.70;;;;;;5028130;28;21037;-67
2023/05/15 11:50:44;;;;;;;10.05;9.18;;;24.60;38.40;;;;;;5027351;28;20447;-66
2023/05/15 11:53:11;;;;;;;8.82;8.13;;;24.70;38.70;;;;;;5025927;28;20521;-69
2023/05/15 11:55:39;;;;;;;9.75;8.85;;;24.90;39.90;;;;;;5027800;28;21071;-69
2023/05/15 11:58:10;;;;;;;8.27;7.60;;;25.00;38.30;;;;;;5030040;28;20432;-70
2023/05/15 12:00:37;;;;;;;6.20;5.60;;;24.80;35.70;;;;;;5028138;28;20494;-68
2023/05/15 12:03:04;;;;;;;6.60;6.00;;;24.60;34.70;;;;;;5031593;28;20425;-68
2023/05/15 12:05:30;;;;;;;8.80;8.00;;;24.60;36.80;;;;;;5032449;28;20513;-71
2023/05/15 12:07:58;;;;;;;10.18;9.30;;;24.60;36.00;;;;;;5026853;28;20521;-68
2023/05/15 12:10:25;;;;;;;8.60;8.00;;;24.70;38.00;;;;;;5026838;28;20422;-69
2023/05/15 12:12:52;;;;;;;8.48;7.68;;;24.80;37.40;;;;;;5026755;28;20447;-67
2023/05/15 12:15:19;;;;;;;8.20;7.50;;;24.90;35.10;;;;;;5025869;28;20426;-68
2023/05/15 12:17:46;;;;;;;7.97;7.35;;;24.90;33.50;;;;;;5028839;28;20438;-68
2023/05/15 12:20:17;;;;;;;7.40;6.80;;;24.80;33.70;;;;;;5031694;28;20458;-69
2023/05/15 12:22:44;;;;;;;7.75;7.10;;;24.90;34.80;;;;;;5028665;28;20438;-69
2023/05/15 12:25:14;;;;;;;8.27;7.57;;;25.10;35.50;;;;;;5027727;28;20418;-69
2023/05/15 12:27:41;;;;;;;7.83;7.23;;;25.10;32.20;;;;;;5026730;28;20446;-67
2023/05/15 12:30:10;;;;;;;7.20;6.70;;;24.80;33.00;;;;;;5026553;28;20809;-70
2023/05/15 12:32:38;;;;;;;8.35;7.65;;;24.70;33.50;;;;;;5026447;28;20431;-68
2023/05/15 12:35:05;;;;;;;9.10;8.20;;;24.60;32.10;;;;;;5026936;28;20426;-67